Flight Track Log - Related Links

Times and Time Zones

All times are in EDT time to prevent confusion due to time zone crossing. See the N2153N flight status page for this flight to view local times or setup timezone preferences in your user account.


Time Position Orientation Groundspeed Altitude Reporting Facility
EDT Latitude Longitude Course Direction KTS MPH feet Rate Location/Type
Thu 10:43:14 AM 34.9833 -89.7833 39° Northeast 74 85 700  Level Memphis TRACON
Thu 10:44:08 AM 35.0000 -89.7667 39° Northeast 85 98 1,300 600 Climbing Memphis TRACON
Thu 10:45:14 AM 35.0333 -89.7500 22° Northeast 84 97 1,900 619 Climbing Memphis TRACON
Thu 10:46:14 AM 35.0667 -89.7500 360° North 119 137 2,600 700 Climbing Memphis TRACON
Thu 10:47:14 AM 35.0833 -89.7500 360° North 93 107 3,300 700 Climbing Memphis TRACON
Thu 10:48:14 AM 35.1000 -89.7833 301° West 85 98 4,000 700 Climbing Memphis TRACON
Thu 10:49:14 AM 35.1333 -89.7833 360° North 86 99 4,700 650 Climbing Memphis TRACON
Thu 10:50:14 AM 35.1500 -89.7833 360° North 87 100 5,300 571 Climbing Memphis TRACON
Thu 10:51:20 AM 35.1833 -89.7833 360° North 93 107 5,900 571 Climbing Memphis TRACON
Thu 10:52:20 AM 35.2167 -89.8000 338° Northwest 106 122 6,500 667 Climbing Memphis TRACON
Thu 10:53:08 AM 35.2333 -89.8000 360° North 106 122 7,100 634 Climbing Memphis TRACON
Thu 10:54:23 AM 35.2667 -89.8000 360° North 105 121 7,800 609 Climbing Memphis TRACON
Thu 10:55:26 AM 35.3000 -89.8000 360° North 108 124 8,500 585 Climbing Memphis TRACON
Thu 10:56:26 AM 35.3333 -89.8000 360° North 109 125 9,000 500 Climbing Memphis TRACON
Thu 10:57:26 AM 35.3667 -89.8000 360° North 114 131 9,500 545 Climbing Memphis TRACON
Thu 10:58:05 AM 35.3833 -89.8000 360° North 120 138 9,900 211 Climbing Memphis TRACON
Thu 10:59:20 AM 35.4333 -89.8167 345° North 172 198 9,900  Level Memphis TRACON
Thu 11:00:26 AM 35.4942 -89.8164 360° North 185 213 9,900 48 Level Memphis Center
Thu 11:01:26 AM 35.5444 -89.8161 360° North 178 205 10,000 50 Climbing Memphis Center
Thu 11:02:26 AM 35.5944 -89.8183 358° North 178 205 10,000  Level Memphis Center
Thu 11:03:26 AM 35.6444 -89.8206 358° North 178 205 10,000  Level Memphis Center
Thu 11:04:26 AM 35.6883 -89.8253 355° North 178 205 10,000  Level Memphis Center
Thu 11:05:26 AM 35.7342 -89.8353 350° North 171 197 10,000  Level Memphis Center
Thu 11:06:26 AM 35.7842 -89.8453 351° North 171 197 10,000  Level Memphis Center
Thu 11:07:26 AM 35.8322 -89.8525 353° North 176 203 10,000  Level Memphis Center
Thu 11:08:26 AM 35.8803 -89.8625 350° North 176 203 10,000  Level Memphis Center
Thu 11:09:26 AM 35.9303 -89.8750 349° North 181 208 10,000  Level Memphis Center
Thu 11:10:26 AM 35.9806 -89.8772 358° North 181 208 10,000  Level Memphis Center
Thu 11:11:26 AM 36.0325 -89.8847 353° North 181 208 10,000  Level Memphis Center
Thu 11:12:26 AM 36.0806 -89.8922 353° North 181 208 10,000  Level Memphis Center
Thu 11:13:26 AM 36.1328 -89.8919 360° North 181 208 10,000  Level Memphis Center
Thu 11:14:26 AM 36.1828 -89.8967 356° North 181 208 10,000  Level Memphis Center
Thu 11:15:26 AM 36.2328 -89.9017 355° North 181 208 10,000  Level Memphis Center
Thu 11:16:26 AM 36.2828 -89.9089 353° North 181 208 10,000  Level Memphis Center
Thu 11:17:26 AM 36.3328 -89.9139 355° North 181 208 10,000  Level Memphis Center
Thu 11:18:26 AM 36.3808 -89.9214 353° North 181 208 10,000 -50 Level Memphis Center
Thu 11:19:26 AM 36.4308 -89.9289 353° North 181 208 9,900 -50 Descending Memphis Center
Thu 11:20:26 AM 36.4811 -89.9311 358° North 181 208 9,900  Level Memphis Center
Thu 11:21:26 AM 36.5311 -89.9361 355° North 181 208 9,900  Level Memphis Center
Thu 11:22:26 AM 36.5853 -89.9383 358° North 181 208 9,900  Level Memphis Center
Thu 11:23:26 AM 36.6331 -89.9433 355° North 181 208 9,900  Level Memphis Center
Thu 11:24:26 AM 36.6811 -89.9481 355° North 181 208 9,900  Level Memphis Center
Thu 11:25:26 AM 36.7250 -89.9531 355° North 175 201 9,900  Level Memphis Center
Thu 11:26:26 AM 36.7750 -89.9606 353° North 175 201 9,900  Level Memphis Center
Thu 11:27:26 AM 36.8208 -89.9631 357° North 175 201 9,900  Level Memphis Center
Thu 11:28:26 AM 36.8689 -89.9678 356° North 175 201 9,900  Level Memphis Center
Thu 11:29:26 AM 36.9147 -89.9781 350° North 175 201 9,900  Level Memphis Center
Thu 11:30:26 AM 36.9606 -89.9856 353° North 170 196 9,900  Level Memphis Center
Thu 11:31:26 AM 37.0106 -89.9906 355° North 170 196 9,900  Level Memphis Center
Thu 11:33:09 AM 37.0833 -90.0017 353° North 170 196 9,900  Level Kansas City Center
Thu 11:34:11 AM 37.1289 -90.0094 352° North 167 192 9,900  Level Kansas City Center
Thu 11:35:13 AM 37.1847 -90.0206 351° North 168 193 9,900  Level Kansas City Center
Thu 11:36:15 AM 37.2311 -90.0247 356° North 166 191 9,900  Level Kansas City Center
Thu 11:37:17 AM 37.2775 -90.0272 358° North 167 192 9,900  Level Kansas City Center
Thu 11:38:19 AM 37.3253 -90.0286 359° North 170 196 9,900  Level Kansas City Center
Thu 11:39:20 AM 37.3722 -90.0281 North 170 196 9,900 -146 Level Kansas City Center
Thu 11:40:22 AM 37.4200 -90.0286 359° North 170 196 9,600 -387 Descending Kansas City Center
Thu 11:41:24 AM 37.4697 -90.0311 358° North 177 204 9,100 -581 Descending Kansas City Center
Thu 11:42:26 AM 37.5303 -90.0358 356° North 181 208 8,400 -726 Descending Kansas City Center
Thu 11:43:28 AM 37.5794 -90.0456 351° North 180 207 7,600 -634 Descending Kansas City Center
Thu 11:44:29 AM 37.6242 -90.0464 359° North 179 206 7,100 -341 Descending Kansas City Center
Thu 11:45:31 AM 37.6711 -90.0486 358° North 172 198 6,900 -339 Descending Kansas City Center
Thu 11:46:33 AM 37.7233 -90.0561 354° North 161 185 6,400 -581 Descending Kansas City Center
Thu 11:47:35 AM 37.7708 -90.0678 349° North 171 197 5,700 -629 Descending Kansas City Center
Thu 11:48:37 AM 37.8183 -90.0742 354° North 172 198 5,100 -339 Descending Kansas City Center
Thu 11:49:39 AM 37.8650 -90.0811 353° North 171 197 5,000 -98 Descending Kansas City Center
Thu 11:50:40 AM 37.9050 -90.0908 349° North 154 177 4,900 -49 Descending Kansas City Center
Thu 11:51:42 AM 37.9461 -90.0903 North 149 171 4,900  Level Kansas City Center
Thu 11:52:44 AM 37.9867 -90.0953 354° North 148 170 4,900  Level Kansas City Center
Thu 11:53:46 AM 38.0350 -90.0964 359° North 145 167 4,900  Level Kansas City Center
Thu 11:54:48 AM 38.0764 -90.0989 357° North 147 169 4,900  Level Kansas City Center
Thu 11:55:49 AM 38.1169 -90.1050 353° North 147 169 4,900 49 Level Kansas City Center
Thu 11:56:51 AM 38.1583 -90.1078 357° North 148 170 5,000 -194 Climbing Kansas City Center
Thu 11:57:53 AM 38.2019 -90.1136 354° North 152 175 4,500 -484 Descending Kansas City Center
Thu 11:58:55 AM 38.2494 -90.1153 358° North 161 185 4,000 -341 Descending Kansas City Center
Thu 11:59:56 AM 38.2994 -90.1206 355° North 158 182 3,800 -488 Descending Kansas City Center
Thu 12:00:58 PM 38.3458 -90.1308 350° North 161 185 3,000 -387 Descending Kansas City Center
Thu 12:02:00 PM 38.3906 -90.1422 349° North 164 189 3,000  Level Kansas City Center
Thu 12:03:01 PM 38.4308 -90.1511 350° North 157 181 3,000 -195 Level Kansas City Center
Thu 12:04:03 PM 38.4708 -90.1569 353° North 150 173 2,600 -581 Descending Kansas City Center
Thu 12:05:05 PM 38.5164 -90.1519 North 160 184 1,800 -581 Descending Kansas City Center
Thu 12:06:07 PM 38.5536 -90.1700 339° North 161 185 1,400 -390 Descending Kansas City Center
Thu 12:07:08 PM 38.5731 -90.2078 303° West 132 152 1,000 -293 Descending Kansas City Center
Thu 12:08:10 PM 38.5814 -90.1789 70° East 119 137 800 -194 Descending Kansas City Center
Thu 12:09:12 PM 38.5633 -90.1492 128° Southeast 117 135 600 -194 Descending Kansas City Center
Thu 12:11:00 PM 38.5667 -90.1500 322° Northwest  Level FlightAware Approximate

Login

Don't have an account? Register now (free) for customized features, flight alerts, and more!